createdAt,value
2023-03-05T00:00:35.877Z,2.27
2023-03-05T00:03:05.775Z,2.47
2023-03-05T00:05:37.170Z,2.13
2023-03-05T00:08:08.083Z,2.80
2023-03-05T00:10:37.876Z,2.00
2023-03-05T00:13:08.196Z,2.37
2023-03-05T00:15:43.148Z,2.60
2023-03-05T00:18:13.013Z,2.17
2023-03-05T00:20:42.576Z,2.83
2023-03-05T00:23:12.481Z,1.87
2023-03-05T00:25:46.488Z,2.40
2023-03-05T00:28:16.351Z,2.50
2023-03-05T00:30:46.274Z,1.95
2023-03-05T00:33:16.320Z,2.57
2023-03-05T00:35:47.690Z,2.83
2023-03-05T00:38:17.353Z,2.47
2023-03-05T00:40:47.319Z,2.50
2023-03-05T00:43:17.092Z,2.83
2023-03-05T00:45:46.805Z,2.30
2023-03-05T00:48:16.442Z,2.17
2023-03-05T00:50:46.624Z,2.63
2023-03-05T00:53:16.232Z,3.10
2023-03-05T00:55:46.079Z,2.00
2023-03-05T00:58:16.132Z,2.00
2023-03-05T01:00:45.968Z,2.60
2023-03-05T01:03:15.800Z,2.77
2023-03-05T01:05:46.320Z,2.43
2023-03-05T01:08:16.827Z,2.50
2023-03-05T01:10:46.669Z,2.50
2023-03-05T01:13:16.808Z,2.70
2023-03-05T01:15:49.016Z,2.42
2023-03-05T01:18:20.244Z,2.25
2023-03-05T01:20:50.222Z,1.97
2023-03-05T01:23:20.426Z,1.90
2023-03-05T01:26:01.074Z,2.10
2023-03-05T01:28:31.132Z,2.07
2023-03-05T01:31:01.007Z,1.93
2023-03-05T01:33:31.016Z,2.60
2023-03-05T01:36:00.955Z,2.47
2023-03-05T01:38:30.765Z,2.40
2023-03-05T01:41:00.709Z,2.00
2023-03-05T01:43:31.862Z,2.10
2023-03-05T01:46:25.294Z,2.15
2023-03-05T01:49:03.921Z,2.33
2023-03-05T01:51:39.285Z,2.30
2023-03-05T01:54:13.804Z,2.60
2023-03-05T01:56:44.887Z,2.30
2023-03-05T01:59:16.315Z,3.20
2023-03-05T02:01:49.632Z,2.90
2023-03-05T02:04:20.157Z,3.08
2023-03-05T02:06:50.476Z,3.37
2023-03-05T02:09:23.650Z,3.10
2023-03-05T02:11:53.631Z,2.80
2023-03-05T02:14:24.427Z,3.23
2023-03-05T02:16:54.254Z,3.33
2023-03-05T02:19:24.212Z,3.67
2023-03-05T02:21:54.060Z,2.77
2023-03-05T02:24:38.282Z,3.22
2023-03-05T02:27:08.288Z,3.57
2023-03-05T02:29:41.126Z,3.63
2023-03-05T02:32:16.190Z,2.70
2023-03-05T02:34:46.174Z,2.63
2023-03-05T02:37:17.760Z,2.83
2023-03-05T02:39:47.845Z,2.80
2023-03-05T02:42:17.499Z,3.58
2023-03-05T02:44:47.753Z,3.17
2023-03-05T02:47:18.246Z,3.10
2023-03-05T02:49:48.113Z,3.20
2023-03-05T02:52:18.420Z,2.50
2023-03-05T02:54:48.721Z,3.33
2023-03-05T02:57:19.086Z,3.63
2023-03-05T02:59:49.094Z,2.67
2023-03-05T03:02:20.450Z,3.03
2023-03-05T03:04:50.228Z,2.60
2023-03-05T03:07:20.239Z,3.00
2023-03-05T03:09:50.135Z,2.60
2023-03-05T03:12:20.041Z,2.60
2023-03-05T03:14:49.853Z,3.10
2023-03-05T03:17:20.076Z,2.83
2023-03-05T03:19:50.178Z,2.87
2023-03-05T03:22:19.751Z,2.85
2023-03-05T03:24:49.544Z,3.27
2023-03-05T03:27:19.481Z,3.00
2023-03-05T03:29:49.464Z,2.77
2023-03-05T03:32:19.298Z,2.77
2023-03-05T03:34:49.541Z,2.80
2023-03-05T03:37:19.466Z,2.70
2023-03-05T03:39:49.356Z,2.80
2023-03-05T03:42:20.933Z,2.50
2023-03-05T03:44:51.248Z,3.23
2023-03-05T03:47:21.176Z,3.33
2023-03-05T03:49:52.479Z,3.27
2023-03-05T03:52:23.014Z,2.70
2023-03-05T03:54:53.140Z,2.67
2023-03-05T03:57:23.291Z,2.65
2023-03-05T03:59:53.095Z,3.00
2023-03-05T04:02:23.435Z,3.52
2023-03-05T04:04:54.229Z,2.67
2023-03-05T04:07:23.968Z,3.00
2023-03-05T04:09:53.882Z,2.57
2023-03-05T04:12:23.842Z,3.43
2023-03-05T04:14:53.684Z,2.93
2023-03-05T04:17:23.817Z,2.87
2023-03-05T04:19:53.576Z,2.67
2023-03-05T04:22:23.043Z,2.67
2023-03-05T04:24:52.830Z,2.93
2023-03-05T04:27:22.706Z,2.60
2023-03-05T04:29:52.904Z,2.52
2023-03-05T04:32:24.083Z,2.47
2023-03-05T04:34:54.045Z,2.30
2023-03-05T04:37:24.881Z,1.87
2023-03-05T04:39:54.865Z,2.60
2023-03-05T04:42:27.768Z,2.33
2023-03-05T04:44:58.066Z,2.20
2023-03-05T04:47:30.750Z,2.37
2023-03-05T04:50:00.896Z,2.00
2023-03-05T04:52:30.812Z,2.40
2023-03-05T04:55:00.792Z,2.13
2023-03-05T04:57:30.552Z,2.30
2023-03-05T05:00:00.654Z,2.23
2023-03-05T05:02:30.193Z,2.10
2023-03-05T05:05:02.470Z,1.97
2023-03-05T05:07:32.777Z,1.95
2023-03-05T05:10:02.636Z,2.80
2023-03-05T05:12:32.891Z,2.05
2023-03-05T05:15:03.214Z,2.40
2023-03-05T05:17:34.113Z,2.52
2023-03-05T05:20:10.818Z,2.65
2023-03-05T05:22:40.391Z,3.00
2023-03-05T05:25:10.789Z,2.50
2023-03-05T05:27:41.579Z,2.53
2023-03-05T05:30:13.628Z,3.12
2023-03-05T05:32:43.646Z,3.40
2023-03-05T05:35:13.234Z,4.07
2023-03-05T05:37:43.152Z,3.30
2023-03-05T05:40:14.211Z,3.62
2023-03-05T05:42:44.939Z,3.47
2023-03-05T05:45:14.498Z,3.10
2023-03-05T05:47:44.681Z,3.35
2023-03-05T05:50:16.493Z,3.52
2023-03-05T05:52:46.276Z,3.60
2023-03-05T05:55:17.134Z,3.30
2023-03-05T05:57:47.073Z,3.57
2023-03-05T06:00:17.118Z,3.27
2023-03-05T06:02:47.099Z,3.33
2023-03-05T06:05:16.913Z,4.30
2023-03-05T06:07:46.709Z,3.83
2023-03-05T06:10:16.568Z,4.30
2023-03-05T06:12:46.207Z,4.05
2023-03-05T06:15:15.971Z,5.17
2023-03-05T06:17:47.795Z,4.87
2023-03-05T06:20:24.968Z,4.00
2023-03-05T06:22:54.555Z,5.17
2023-03-05T06:25:24.599Z,5.53
2023-03-05T06:27:54.770Z,5.60
2023-03-05T06:30:24.412Z,6.10
2023-03-05T06:32:54.404Z,5.20
2023-03-05T06:35:23.946Z,6.83
2023-03-05T06:37:53.670Z,5.50
2023-03-05T06:40:23.374Z,6.30
2023-03-05T06:42:53.230Z,7.23
2023-03-05T06:45:22.992Z,7.95
2023-03-05T06:47:52.984Z,7.37
2023-03-05T06:50:23.050Z,6.85
2023-03-05T06:52:53.047Z,6.40
2023-03-05T06:55:22.959Z,7.03
2023-03-05T06:57:52.918Z,7.90
2023-03-05T07:00:25.769Z,7.62
2023-03-05T07:02:55.771Z,8.90
2023-03-05T07:05:25.697Z,8.35
2023-03-05T07:07:55.565Z,8.43
2023-03-05T07:10:25.351Z,9.43
2023-03-05T07:12:56.625Z,9.35
2023-03-05T07:15:26.437Z,8.25
2023-03-05T07:17:56.635Z,8.83
2023-03-05T07:20:26.461Z,8.25
2023-03-05T07:22:56.253Z,8.27
2023-03-05T07:25:26.411Z,8.28
2023-03-05T07:27:56.408Z,8.77
2023-03-05T07:30:25.957Z,8.13
2023-03-05T07:32:55.824Z,7.47
2023-03-05T07:35:25.837Z,7.95
2023-03-05T07:37:55.943Z,8.47
2023-03-05T07:40:26.109Z,8.75
2023-03-05T07:42:55.900Z,7.77
2023-03-05T07:45:27.446Z,7.67
2023-03-05T07:47:57.382Z,7.87
2023-03-05T07:50:27.118Z,7.37
2023-03-05T07:52:56.881Z,7.47
2023-03-05T07:55:26.893Z,7.73
2023-03-05T07:57:56.906Z,7.53
2023-03-05T08:00:26.444Z,6.60
2023-03-05T08:02:56.459Z,6.73
2023-03-05T08:05:26.364Z,6.57
2023-03-05T08:07:56.206Z,6.63
2023-03-05T08:10:27.347Z,6.03
2023-03-05T08:12:57.177Z,5.53
2023-03-05T08:15:27.201Z,5.77
2023-03-05T08:17:57.062Z,5.60
2023-03-05T08:20:27.072Z,6.27
2023-03-05T08:22:56.829Z,4.53
2023-03-05T08:25:26.415Z,4.28
2023-03-05T08:27:56.884Z,3.60
2023-03-05T08:30:27.706Z,3.00
2023-03-05T08:32:57.984Z,2.70
2023-03-05T08:35:27.800Z,2.77
2023-03-05T08:37:59.077Z,2.30
2023-03-05T08:40:28.931Z,2.45
2023-03-05T08:43:00.534Z,2.37
2023-03-05T08:45:30.850Z,2.85
2023-03-05T08:48:00.777Z,2.00
2023-03-05T08:50:30.675Z,2.30
2023-03-05T08:53:00.622Z,1.90
2023-03-05T08:55:30.654Z,1.60
2023-03-05T08:58:00.486Z,1.97
2023-03-05T09:00:30.123Z,2.00
2023-03-05T09:03:00.362Z,1.57
2023-03-05T09:05:30.234Z,1.87
2023-03-05T09:08:00.467Z,1.77
2023-03-05T09:10:30.372Z,1.50
2023-03-05T09:13:00.634Z,1.80
2023-03-05T09:15:30.756Z,1.90
2023-03-05T09:18:00.657Z,2.03
2023-03-05T09:20:32.408Z,1.55
2023-03-05T09:23:02.329Z,2.00
2023-03-05T09:25:32.310Z,1.53
2023-03-05T09:28:02.081Z,1.40
2023-03-05T09:30:31.900Z,1.70
2023-03-05T09:33:02.628Z,1.20
2023-03-05T09:35:34.487Z,0.90
2023-03-05T09:38:09.768Z,0.64
2023-03-05T09:40:48.365Z,0.87
2023-03-05T09:43:23.762Z,1.00
2023-03-05T09:46:02.352Z,1.40
2023-03-05T09:48:41.139Z,1.60
2023-03-05T09:51:16.971Z,1.50
2023-03-05T09:54:07.527Z,1.70
2023-03-05T09:56:42.840Z,2.77
2023-03-05T09:59:36.115Z,3.10
2023-03-05T10:02:17.366Z,2.87
2023-03-05T10:07:47.378Z,2.75
2023-03-05T10:10:21.649Z,2.58
2023-03-05T10:12:54.531Z,2.73
2023-03-05T10:15:39.425Z,2.52
2023-03-05T10:18:24.129Z,2.00
2023-03-05T10:21:02.765Z,2.20
2023-03-05T10:23:54.696Z,1.77
2023-03-05T10:26:42.022Z,2.10
2023-03-05T10:29:20.690Z,2.02
2023-03-05T10:32:11.691Z,1.60
2023-03-05T10:34:56.235Z,1.90
2023-03-05T10:37:47.085Z,1.30
2023-03-05T10:40:35.976Z,1.37
2023-03-05T10:43:26.671Z,1.30
2023-03-05T10:45:58.145Z,0.80
2023-03-05T10:48:36.525Z,1.10
2023-03-05T10:51:15.671Z,1.15
2023-03-05T10:54:12.170Z,1.03
2023-03-05T10:56:41.831Z,0.93
2023-03-05T10:59:11.612Z,1.10
2023-03-05T11:01:41.396Z,0.70
2023-03-05T11:04:32.275Z,0.80
2023-03-05T11:07:03.506Z,0.60
2023-03-05T11:09:33.332Z,0.80
2023-03-05T11:12:21.755Z,0.63
2023-03-05T11:15:17.142Z,1.00
2023-03-05T11:17:49.944Z,1.23
2023-03-05T11:20:22.815Z,0.80
2023-03-05T11:23:14.877Z,1.20
2023-03-05T11:25:57.043Z,1.00
2023-03-05T11:28:35.568Z,0.80
2023-03-05T11:31:08.727Z,0.80
2023-03-05T11:33:39.383Z,0.85
2023-03-05T11:36:16.745Z,0.57
2023-03-05T11:39:10.609Z,1.00
2023-03-05T11:41:51.984Z,0.67
2023-03-05T11:44:36.521Z,1.05
2023-03-05T11:47:12.052Z,1.37
2023-03-05T11:49:44.840Z,0.70
2023-03-05T11:52:23.243Z,0.70
2023-03-05T11:55:13.747Z,1.30
2023-03-05T11:57:49.194Z,1.00
2023-03-05T12:00:22.158Z,1.37
2023-03-05T12:02:55.468Z,1.10
2023-03-05T12:05:25.129Z,1.00
2023-03-05T12:07:58.582Z,1.25
2023-03-05T12:10:28.573Z,0.90
2023-03-05T12:13:10.622Z,1.10
2023-03-05T12:15:43.737Z,0.80
2023-03-05T12:18:23.297Z,1.10
2023-03-05T12:21:02.004Z,0.90
2023-03-05T12:23:46.594Z,1.13
2023-03-05T12:26:17.190Z,1.00
2023-03-05T12:28:55.667Z,0.80
2023-03-05T12:31:31.056Z,0.90
2023-03-05T12:34:00.871Z,0.90
2023-03-05T12:36:37.181Z,0.70
2023-03-05T12:39:26.552Z,0.90
2023-03-05T12:41:56.602Z,1.00
2023-03-05T12:44:26.746Z,0.50
2023-03-05T12:47:15.733Z,0.70
2023-03-05T12:49:47.056Z,1.10
2023-03-05T12:52:25.812Z,1.00
2023-03-05T12:55:24.986Z,0.80
2023-03-05T12:58:00.798Z,0.97
2023-03-05T13:00:39.566Z,0.70
2023-03-05T13:03:15.313Z,0.93
2023-03-05T13:08:33.176Z,1.02
2023-03-05T13:11:05.972Z,0.60
2023-03-05T13:13:38.838Z,0.87
2023-03-05T13:16:29.215Z,0.77
2023-03-05T13:19:02.539Z,0.80
2023-03-05T13:21:35.331Z,0.90
2023-03-05T13:24:05.610Z,0.98
2023-03-05T13:26:41.024Z,0.42
2023-03-05T13:29:20.009Z,0.65
2023-03-05T13:31:52.648Z,0.60
2023-03-05T13:34:40.928Z,0.60
2023-03-05T13:37:07.442Z,0.50
2023-03-05T13:39:40.151Z,1.00
2023-03-05T13:42:18.872Z,0.70
2023-03-05T13:44:57.185Z,1.40
2023-03-05T13:47:29.925Z,0.60
2023-03-05T13:50:01.509Z,0.73
2023-03-05T13:52:39.385Z,0.60
2023-03-05T13:55:17.137Z,0.70
2023-03-05T14:16:16.124Z,1.02
2023-03-05T14:18:57.810Z,1.20
2023-03-05T14:21:29.222Z,0.87
2023-03-05T14:24:00.546Z,1.87
2023-03-05T14:40:16.144Z,0.93
2023-03-05T14:42:58.036Z,1.00
2023-03-05T14:45:33.614Z,0.70
2023-03-05T14:48:06.599Z,0.70
2023-03-05T14:50:49.397Z,1.73
2023-03-05T14:53:28.933Z,0.90
2023-03-05T14:55:59.000Z,0.90
2023-03-05T14:58:35.272Z,1.40
2023-03-05T15:01:05.396Z,2.22
2023-03-05T15:03:35.120Z,1.30
2023-03-05T15:06:06.964Z,1.43
2023-03-05T15:08:37.718Z,1.10
2023-03-05T15:11:07.494Z,1.93
2023-03-05T15:13:37.609Z,1.87
2023-03-05T15:16:11.364Z,1.27
2023-03-05T15:18:41.441Z,1.72
2023-03-05T15:21:11.629Z,1.47
2023-03-05T15:23:41.476Z,1.63
2023-03-05T15:26:14.254Z,1.80
2023-03-05T15:28:44.766Z,1.37
2023-03-05T15:31:16.132Z,1.60
2023-03-05T15:33:45.975Z,1.90
2023-03-05T15:36:15.625Z,1.50
2023-03-05T15:38:46.642Z,1.52
2023-03-05T15:41:17.531Z,1.37
2023-03-05T15:43:47.282Z,1.60
2023-03-05T15:46:17.472Z,1.92
2023-03-05T15:48:48.908Z,1.60
2023-03-05T15:51:20.339Z,1.80
2023-03-05T15:53:49.906Z,1.90
2023-03-05T15:56:21.117Z,2.02
2023-03-05T15:58:51.672Z,2.17
2023-03-05T16:01:23.497Z,2.00
2023-03-05T16:03:53.887Z,1.80
2023-03-05T16:06:24.859Z,2.33
2023-03-05T16:08:57.848Z,1.93
2023-03-05T16:11:29.387Z,2.30
2023-03-05T16:14:01.862Z,2.03
2023-03-05T16:16:32.993Z,2.00
2023-03-05T16:19:05.786Z,2.00
2023-03-05T16:21:36.307Z,1.73
2023-03-05T16:24:08.344Z,1.98
2023-03-05T16:26:39.837Z,1.50
2023-03-05T16:29:10.204Z,1.70
2023-03-05T16:31:41.789Z,1.80
2023-03-05T16:34:14.083Z,1.80
2023-03-05T16:36:49.127Z,2.20
2023-03-05T16:39:20.453Z,2.13
2023-03-05T16:41:52.575Z,1.83
2023-03-05T16:44:22.659Z,2.30
2023-03-05T16:46:54.539Z,1.83
2023-03-05T16:49:24.737Z,1.80
2023-03-05T16:51:56.599Z,2.40
2023-03-05T16:54:26.713Z,2.10
2023-03-05T16:59:27.963Z,1.97
2023-03-05T17:01:57.870Z,2.00
2023-03-05T17:04:28.178Z,1.70
2023-03-05T17:06:58.851Z,1.80
2023-03-05T17:09:28.734Z,2.17
2023-03-05T17:11:59.096Z,1.70
2023-03-05T17:14:29.377Z,1.47
2023-03-05T17:17:01.286Z,1.67
2023-03-05T17:19:32.034Z,1.77
2023-03-05T17:22:02.185Z,1.67
2023-03-05T17:24:33.277Z,1.50
2023-03-05T17:27:03.263Z,1.30
2023-03-05T17:29:33.391Z,1.40
2023-03-05T17:32:03.419Z,1.67
2023-03-05T17:34:36.252Z,1.77
2023-03-05T17:37:06.590Z,1.70
2023-03-05T17:39:36.746Z,1.67
2023-03-05T17:42:06.672Z,1.97
2023-03-05T17:44:36.208Z,2.10
2023-03-05T17:47:06.101Z,2.00
2023-03-05T17:49:35.878Z,1.90
2023-03-05T17:52:07.184Z,1.90
2023-03-05T17:54:37.070Z,1.80
2023-03-05T17:57:07.446Z,1.67
2023-03-05T17:59:37.283Z,1.50
2023-03-05T18:02:08.798Z,1.60
2023-03-05T18:04:39.203Z,1.50
2023-03-05T18:07:09.636Z,1.30
2023-03-05T18:09:39.562Z,1.30
2023-03-05T18:12:11.160Z,1.34
2023-03-05T18:14:41.353Z,1.33
2023-03-05T18:17:11.484Z,1.50
2023-03-05T18:19:43.793Z,1.27
2023-03-05T18:22:13.119Z,1.20
2023-03-05T18:24:43.704Z,1.10
2023-03-05T18:27:14.296Z,1.32
2023-03-05T18:29:44.810Z,1.40
2023-03-05T18:32:16.143Z,1.60
2023-03-05T18:34:45.996Z,2.00
2023-03-05T18:37:15.956Z,1.67
2023-03-05T18:39:45.886Z,1.73
2023-03-05T18:42:16.387Z,1.87
2023-03-05T18:44:46.607Z,1.70
2023-03-05T18:47:16.544Z,2.13
2023-03-05T18:49:46.904Z,2.00
2023-03-05T18:52:17.439Z,2.80
2023-03-05T18:54:47.640Z,2.30
2023-03-05T18:57:19.687Z,2.35
2023-03-05T18:59:50.240Z,2.47
2023-03-05T19:02:20.080Z,2.97
2023-03-05T19:04:50.233Z,3.17
2023-03-05T19:07:20.388Z,3.40
2023-03-05T19:09:59.991Z,3.13
2023-03-05T19:12:33.389Z,2.90
2023-03-05T19:15:04.873Z,3.35
2023-03-05T19:17:34.803Z,3.40
2023-03-05T19:20:08.942Z,3.68
2023-03-05T19:22:39.335Z,3.53
2023-03-05T19:25:10.113Z,4.40
2023-03-05T19:27:40.735Z,3.60
2023-03-05T19:30:13.809Z,3.72
2023-03-05T19:32:45.640Z,3.45
2023-03-05T19:35:19.190Z,3.67
2023-03-05T19:37:49.382Z,3.83
2023-03-05T19:40:22.702Z,3.15
2023-03-05T19:42:52.627Z,3.40
2023-03-05T19:45:22.122Z,3.20
2023-03-05T19:47:52.874Z,3.10
2023-03-05T19:50:23.617Z,2.97
2023-03-05T19:52:54.109Z,2.80
2023-03-05T19:55:24.662Z,2.72
2023-03-05T19:57:54.914Z,2.00
2023-03-05T20:00:27.723Z,2.20
2023-03-05T20:02:58.819Z,2.13
2023-03-05T20:05:29.053Z,2.50
2023-03-05T20:07:59.358Z,2.03
2023-03-05T20:10:29.941Z,1.90
2023-03-05T20:12:59.907Z,2.20
2023-03-05T20:15:30.790Z,2.00
2023-03-05T20:18:03.163Z,1.93
2023-03-05T20:20:33.767Z,1.73
2023-03-05T20:23:04.243Z,1.70
2023-03-05T20:25:34.885Z,1.52
2023-03-05T20:28:08.279Z,1.50
2023-03-05T20:30:38.553Z,1.50
2023-03-05T20:33:08.481Z,1.40
2023-03-05T20:35:38.845Z,1.50
2023-03-05T20:38:14.666Z,1.50
2023-03-05T20:40:44.664Z,1.40
2023-03-05T20:43:15.014Z,1.50
2023-03-05T20:45:45.315Z,1.20
2023-03-05T20:48:15.849Z,1.40
2023-03-05T20:50:47.429Z,1.83
2023-03-05T20:53:17.987Z,1.70
2023-03-05T20:55:51.221Z,1.40
2023-03-05T20:58:21.372Z,1.37
2023-03-05T21:00:51.258Z,2.00
2023-03-05T21:03:21.113Z,1.63
2023-03-05T21:05:50.909Z,1.43
2023-03-05T21:08:20.360Z,1.20
2023-03-05T21:10:50.131Z,1.10
2023-03-05T21:13:19.992Z,1.40
2023-03-05T21:15:49.778Z,1.50
2023-03-05T21:18:19.784Z,1.37
2023-03-05T21:20:49.987Z,1.43
2023-03-05T21:23:19.752Z,1.30
2023-03-05T21:25:49.503Z,1.67
2023-03-05T21:28:19.355Z,1.60
2023-03-05T21:30:52.568Z,1.63
2023-03-05T21:33:24.890Z,1.40
2023-03-05T21:35:56.897Z,1.63
2023-03-05T21:38:29.003Z,2.02
2023-03-05T21:40:59.689Z,1.90
2023-03-05T21:43:31.345Z,2.83
2023-03-05T21:46:03.307Z,2.50
2023-03-05T21:48:33.389Z,2.40
2023-03-05T21:51:08.594Z,2.70
2023-03-05T21:53:38.206Z,3.90
2023-03-05T21:56:21.077Z,4.10
2023-03-05T21:58:51.561Z,4.27
2023-03-05T22:01:22.355Z,4.43
2023-03-05T22:03:52.313Z,6.27
2023-03-05T22:06:21.955Z,5.90
2023-03-05T22:08:51.751Z,5.90
2023-03-05T22:11:22.348Z,6.53
2023-03-05T22:13:52.191Z,5.83
2023-03-05T22:16:23.658Z,5.87
2023-03-05T22:18:53.784Z,6.03
2023-03-05T22:21:27.125Z,6.20
2023-03-05T22:23:57.727Z,6.10
2023-03-05T22:26:29.642Z,5.58
2023-03-05T22:28:59.426Z,6.13
2023-03-05T22:31:30.446Z,5.50
2023-03-05T22:34:00.262Z,6.10
2023-03-05T22:36:30.278Z,5.73
2023-03-05T22:39:00.036Z,6.53
2023-03-05T22:41:29.787Z,5.90
2023-03-05T22:43:59.521Z,6.30
2023-03-05T22:46:29.105Z,5.78
2023-03-05T22:48:58.846Z,5.60
2023-03-05T22:51:28.630Z,5.30
2023-03-05T22:53:58.360Z,5.77
2023-03-05T22:56:28.409Z,5.03
2023-03-05T22:58:58.602Z,5.47
2023-03-05T23:01:28.602Z,6.20
2023-03-05T23:04:02.241Z,5.33
2023-03-05T23:06:32.168Z,5.60
2023-03-05T23:09:01.915Z,6.20
2023-03-05T23:11:31.702Z,6.50
2023-03-05T23:14:01.854Z,6.08
2023-03-05T23:16:31.324Z,6.00
2023-03-05T23:19:01.162Z,7.20
2023-03-05T23:21:30.991Z,6.77
2023-03-05T23:24:00.737Z,6.47
2023-03-05T23:26:30.473Z,7.67
2023-03-05T23:29:03.291Z,7.78
2023-03-05T23:31:33.127Z,8.10
2023-03-05T23:34:03.027Z,7.40
2023-03-05T23:36:32.852Z,8.10
2023-03-05T23:39:02.611Z,7.63
2023-03-05T23:41:32.413Z,8.10
2023-03-05T23:44:02.179Z,8.60
2023-03-05T23:46:32.035Z,8.70
2023-03-05T23:49:01.803Z,9.53
2023-03-05T23:51:31.591Z,9.37
2023-03-05T23:54:01.646Z,9.93
2023-03-05T23:56:32.033Z,10.20
2023-03-05T23:59:02.087Z,10.63
